createdAt,value
2023-04-01T00:00:00.867Z,9.90
2023-04-01T00:02:29.595Z,9.90
2023-04-01T00:04:59.846Z,9.90
2023-04-01T00:07:30.726Z,10.00
2023-04-01T00:09:58.635Z,10.10
2023-04-01T00:12:32.320Z,10.20
2023-04-01T00:15:09.755Z,10.20
2023-04-01T00:17:44.589Z,10.00
2023-04-01T00:20:15.620Z,10.10
2023-04-01T00:22:43.421Z,10.10
2023-04-01T00:25:11.143Z,10.20
2023-04-01T00:27:40.375Z,10.30
2023-04-01T00:30:10.832Z,10.30
2023-04-01T00:32:41.664Z,10.40
2023-04-01T00:35:14.289Z,10.50
2023-04-01T00:37:41.958Z,10.70
2023-04-01T00:40:37.229Z,10.60
2023-04-01T00:43:21.652Z,10.70
2023-04-01T00:45:52.660Z,10.90
2023-04-01T00:48:29.929Z,10.80
2023-04-01T00:51:08.101Z,10.70
2023-04-01T00:53:48.982Z,10.70
2023-04-01T00:56:57.570Z,10.60
2023-04-01T00:59:40.552Z,10.80
2023-04-01T01:02:18.836Z,10.80
2023-04-01T01:04:50.185Z,10.80
2023-04-01T01:07:38.468Z,10.70
2023-04-01T01:10:31.731Z,10.60
2023-04-01T01:13:32.230Z,10.70
2023-04-01T01:16:24.441Z,10.70
2023-04-01T01:19:48.994Z,10.70
2023-04-01T01:22:35.518Z,10.70
2023-04-01T01:25:45.141Z,10.60
2023-04-01T01:29:12.395Z,10.70
2023-04-01T01:31:57.045Z,10.80
2023-04-01T01:35:17.249Z,11.00
2023-04-01T01:37:58.219Z,11.00
2023-04-01T01:40:40.708Z,10.80
2023-04-01T01:43:17.106Z,10.70
2023-04-01T01:45:55.851Z,10.60
2023-04-01T01:48:33.126Z,10.60
2023-04-01T01:51:02.077Z,10.70
2023-04-01T01:53:32.779Z,10.80
2023-04-01T01:56:02.477Z,10.70
2023-04-01T01:58:53.696Z,10.60
2023-04-01T02:01:34.876Z,10.50
2023-04-01T02:04:19.891Z,10.60
2023-04-01T02:07:07.856Z,10.70
2023-04-01T02:09:37.110Z,10.70
2023-04-01T02:12:18.786Z,10.80
2023-04-01T02:15:15.262Z,10.80
2023-04-01T02:17:50.431Z,11.00
2023-04-01T02:20:34.546Z,11.00
2023-04-01T02:23:07.415Z,11.00
2023-04-01T02:25:43.932Z,11.00
2023-04-01T02:28:18.182Z,11.00
2023-04-01T02:30:48.909Z,10.90
2023-04-01T02:33:20.087Z,11.00
2023-04-01T02:35:48.562Z,10.70
2023-04-01T02:38:18.580Z,10.50
2023-04-01T02:41:01.658Z,10.40
2023-04-01T02:43:35.417Z,10.20
2023-04-01T02:46:08.065Z,10.10
2023-04-01T02:48:38.890Z,10.10
2023-04-01T02:51:13.691Z,10.00
2023-04-01T02:53:43.758Z,10.10
2023-04-01T02:56:11.547Z,10.10
2023-04-01T02:58:47.408Z,10.20
2023-04-01T03:01:23.702Z,10.10
2023-04-01T03:03:57.237Z,10.00
2023-04-01T03:06:25.086Z,10.00
2023-04-01T03:08:57.263Z,10.00
2023-04-01T03:11:28.023Z,9.90
2023-04-01T03:13:55.645Z,9.90
2023-04-01T03:16:24.152Z,10.00
2023-04-01T03:18:53.597Z,10.10
2023-04-01T03:21:33.180Z,10.10
2023-04-01T03:24:04.101Z,10.20
2023-04-01T03:26:35.115Z,10.20
2023-04-01T03:29:09.404Z,10.30
2023-04-01T03:31:38.172Z,10.40
2023-04-01T03:34:05.903Z,10.40
2023-04-01T03:36:36.901Z,10.40
2023-04-01T03:39:05.072Z,10.40
2023-04-01T03:41:48.360Z,10.50
2023-04-01T03:44:15.873Z,10.60
2023-04-01T03:46:43.719Z,10.60
2023-04-01T03:49:21.674Z,10.50
2023-04-01T03:51:50.900Z,10.40
2023-04-01T03:54:30.315Z,10.40
2023-04-01T03:56:59.164Z,10.30
2023-04-01T03:59:32.763Z,10.30
2023-04-01T04:02:01.000Z,10.30
2023-04-01T04:04:33.675Z,10.20
2023-04-01T04:07:11.084Z,10.30
2023-04-01T04:10:02.109Z,10.30
2023-04-01T04:12:37.985Z,10.30
2023-04-01T04:15:07.725Z,10.20
2023-04-01T04:17:40.385Z,10.20
2023-04-01T04:20:11.756Z,10.10
2023-04-01T04:22:40.214Z,10.20
2023-04-01T04:25:12.854Z,10.20
2023-04-01T04:27:44.458Z,10.20
2023-04-01T04:30:14.968Z,10.30
2023-04-01T04:32:48.427Z,10.50
2023-04-01T04:35:19.569Z,10.60
2023-04-01T04:37:49.964Z,10.50
2023-04-01T04:40:26.337Z,10.60
2023-04-01T04:42:59.487Z,10.60
2023-04-01T04:45:48.277Z,10.70
2023-04-01T04:48:21.915Z,10.60
2023-04-01T04:50:52.413Z,10.60
2023-04-01T04:53:26.861Z,10.70
2023-04-01T04:56:08.775Z,10.70
2023-04-01T04:58:48.844Z,10.60
2023-04-01T05:01:24.164Z,10.50
2023-04-01T05:03:54.250Z,10.50
2023-04-01T05:06:23.602Z,10.30
2023-04-01T05:08:51.503Z,10.10
2023-04-01T05:11:21.684Z,10.20
2023-04-01T05:13:53.789Z,10.30
2023-04-01T05:16:24.795Z,10.10
2023-04-01T05:18:54.589Z,10.10
2023-04-01T05:21:25.215Z,10.10
2023-04-01T05:23:58.723Z,10.00
2023-04-01T05:26:33.435Z,9.90
2023-04-01T05:29:05.630Z,9.90
2023-04-01T05:31:33.564Z,10.00
2023-04-01T05:34:01.160Z,9.90
2023-04-01T05:36:28.851Z,9.90
2023-04-01T05:38:57.453Z,10.00
2023-04-01T05:41:27.422Z,10.10
2023-04-01T05:44:02.487Z,10.20
2023-04-01T05:46:52.388Z,10.20
2023-04-01T05:49:22.837Z,10.20
2023-04-01T05:51:52.470Z,10.40
2023-04-01T05:54:21.744Z,10.30
2023-04-01T05:56:49.301Z,10.30
2023-04-01T05:59:17.929Z,10.40
2023-04-01T06:01:54.306Z,10.50
2023-04-01T06:04:22.318Z,10.40
2023-04-01T06:06:49.648Z,10.40
2023-04-01T06:09:41.994Z,10.40
2023-04-01T06:12:40.587Z,10.30
2023-04-01T06:15:37.354Z,10.10
2023-04-01T06:18:36.994Z,10.10
2023-04-01T06:21:44.552Z,10.00
2023-04-01T06:24:59.164Z,9.90
2023-04-01T06:28:10.553Z,10.00
2023-04-01T06:31:16.897Z,10.20
2023-04-01T06:35:18.760Z,10.20
2023-04-01T06:38:16.708Z,10.40
2023-04-01T06:41:17.883Z,10.60
2023-04-01T06:44:40.229Z,10.50
2023-04-01T06:47:49.802Z,10.60
2023-04-01T06:51:40.039Z,10.60
2023-04-01T06:54:49.387Z,10.40
2023-04-01T06:58:00.179Z,10.60
2023-04-01T07:00:43.777Z,10.60
2023-04-01T07:03:53.537Z,10.50
2023-04-01T07:06:51.159Z,10.50
2023-04-01T07:09:53.846Z,10.60
2023-04-01T07:13:01.721Z,10.70
2023-04-01T07:16:16.053Z,10.70
2023-04-01T07:19:19.235Z,10.90
2023-04-01T07:22:42.229Z,10.90
2023-04-01T07:25:47.004Z,11.00
2023-04-01T07:28:43.261Z,11.30
2023-04-01T07:32:11.180Z,11.50
2023-04-01T07:34:53.457Z,11.50
2023-04-01T07:37:37.709Z,11.70
2023-04-01T07:40:35.960Z,11.80
2023-04-01T07:43:54.695Z,11.90
2023-04-01T07:46:52.301Z,11.70
2023-04-01T07:49:42.795Z,11.80
2023-04-01T07:52:48.259Z,12.00
2023-04-01T07:55:45.161Z,11.70
2023-04-01T07:58:46.291Z,11.80
2023-04-01T08:01:30.606Z,11.50
2023-04-01T08:04:48.084Z,11.50
2023-04-01T08:07:26.434Z,11.80
2023-04-01T08:10:49.018Z,11.70
2023-04-01T08:14:17.149Z,11.60
2023-04-01T08:17:33.798Z,11.60
2023-04-01T08:20:49.480Z,11.50
2023-04-01T08:23:32.176Z,11.20
2023-04-01T08:26:43.717Z,11.30
2023-04-01T08:29:29.164Z,11.50
2023-04-01T08:32:38.402Z,11.60
2023-04-01T08:35:36.905Z,11.20
2023-04-01T08:38:31.387Z,11.00
2023-04-01T08:41:29.846Z,11.00
2023-04-01T08:44:53.311Z,10.90
2023-04-01T08:48:24.948Z,11.00
2023-04-01T08:51:53.481Z,11.00
2023-04-01T08:55:25.275Z,10.90
2023-04-01T08:58:34.055Z,10.80
2023-04-01T09:02:24.638Z,10.60
2023-04-01T09:05:23.869Z,10.50
2023-04-01T09:08:23.394Z,10.50
2023-04-01T09:11:31.319Z,10.40
2023-04-01T09:15:26.045Z,10.50
2023-04-01T09:19:02.321Z,10.20
2023-04-01T09:22:20.873Z,10.10
2023-04-01T09:25:19.185Z,10.30
2023-04-01T09:28:10.590Z,10.10
2023-04-01T09:31:24.345Z,10.30
2023-04-01T09:34:45.476Z,10.20
2023-04-01T09:37:54.151Z,10.40
2023-04-01T09:40:56.424Z,10.30
2023-04-01T09:44:03.943Z,10.20
2023-04-01T09:47:06.112Z,10.20
2023-04-01T09:49:56.877Z,10.20
2023-04-01T09:52:46.521Z,10.20
2023-04-01T09:56:16.193Z,10.10
2023-04-01T10:00:08.839Z,10.40
2023-04-01T10:03:50.964Z,10.30
2023-04-01T10:07:10.545Z,10.50
2023-04-01T10:10:12.586Z,10.60
2023-04-01T10:13:39.390Z,10.80
2023-04-01T10:16:47.809Z,10.70
2023-04-01T10:19:57.367Z,10.00
2023-04-01T10:23:38.219Z,10.20
2023-04-01T10:27:08.364Z,10.20
2023-04-01T10:30:49.234Z,10.00
2023-04-01T10:33:38.038Z,10.30
2023-04-01T10:36:54.998Z,10.00
2023-04-01T10:39:53.468Z,10.10
2023-04-01T10:43:44.178Z,10.30
2023-04-01T10:46:38.400Z,10.20
2023-04-01T10:49:27.197Z,10.20
2023-04-01T10:53:07.412Z,10.00
2023-04-01T10:56:55.216Z,10.00
2023-04-01T11:00:29.908Z,10.00
2023-04-01T11:04:43.993Z,9.80
2023-04-01T11:08:50.974Z,9.70
2023-04-01T11:11:52.483Z,9.80
2023-04-01T11:14:53.548Z,9.80
2023-04-01T11:18:04.149Z,9.70
2023-04-01T11:20:46.523Z,9.70
2023-04-01T11:23:29.353Z,10.00
2023-04-01T11:26:32.005Z,10.20
2023-04-01T11:30:23.923Z,9.90
2023-04-01T11:33:35.691Z,9.60
2023-04-01T11:37:08.094Z,9.50
2023-04-01T11:40:07.441Z,9.60
2023-04-01T11:43:57.355Z,9.70
2023-04-01T11:47:39.717Z,9.60
2023-04-01T11:50:23.118Z,9.50
2023-04-01T11:53:40.729Z,9.60
2023-04-01T11:56:53.817Z,9.60
2023-04-01T12:00:01.925Z,9.70
2023-04-01T12:03:38.602Z,9.70
2023-04-01T12:06:36.516Z,9.50
2023-04-01T12:09:59.374Z,9.40
2023-04-01T12:13:00.179Z,9.10
2023-04-01T12:16:16.004Z,9.20
2023-04-01T12:19:03.018Z,9.30
2023-04-01T12:21:53.736Z,8.90
2023-04-01T12:24:48.290Z,8.80
2023-04-01T12:28:08.425Z,9.10
2023-04-01T12:31:15.787Z,9.10
2023-04-01T12:34:22.271Z,9.10
2023-04-01T12:37:21.005Z,8.80
2023-04-01T12:40:12.704Z,8.90
2023-04-01T12:43:16.228Z,8.80
2023-04-01T12:46:11.425Z,8.90
2023-04-01T12:49:21.768Z,8.90
2023-04-01T12:53:04.102Z,8.70
2023-04-01T12:55:48.743Z,8.70
2023-04-01T12:59:01.142Z,8.70
2023-04-01T13:02:02.301Z,8.60
2023-04-01T13:05:19.210Z,8.70
2023-04-01T13:08:02.447Z,8.50
2023-04-01T13:11:21.627Z,8.40
2023-04-01T13:14:33.842Z,8.40
2023-04-01T13:17:47.543Z,8.50
2023-04-01T13:21:24.699Z,8.80
2023-04-01T13:24:42.664Z,8.90
2023-04-01T13:27:27.582Z,8.80
2023-04-01T13:30:48.203Z,8.70
2023-04-01T13:33:37.408Z,8.60
2023-04-01T13:36:51.171Z,8.80
2023-04-01T13:39:42.788Z,8.50
2023-04-01T13:42:41.200Z,8.60
2023-04-01T13:46:04.168Z,8.40
2023-04-01T13:49:13.251Z,8.50
2023-04-01T13:52:47.562Z,8.60
2023-04-01T13:55:48.029Z,8.60
2023-04-01T13:58:53.202Z,8.70
2023-04-01T14:01:57.777Z,8.70
2023-04-01T14:05:32.376Z,8.60
2023-04-01T14:11:18.399Z,8.50
2023-04-01T14:14:12.606Z,8.40
2023-04-01T14:17:07.165Z,8.50
2023-04-01T14:19:58.285Z,8.50
2023-04-01T14:23:04.466Z,8.50
2023-04-01T14:26:28.464Z,8.40
2023-04-01T14:29:41.721Z,8.40
2023-04-01T14:33:01.410Z,8.20
2023-04-01T14:36:34.874Z,8.00
2023-04-01T14:39:45.830Z,8.10
2023-04-01T14:43:10.233Z,8.20
2023-04-01T14:46:31.129Z,7.80
2023-04-01T14:49:40.615Z,8.10
2023-04-01T14:52:33.021Z,7.90
2023-04-01T14:55:15.806Z,7.90
2023-04-01T14:57:43.387Z,7.80
2023-04-01T15:00:10.911Z,8.00
2023-04-01T15:03:08.937Z,8.20
2023-04-01T15:06:47.199Z,8.20
2023-04-01T15:10:23.376Z,8.40
2023-04-01T15:13:20.297Z,7.80
2023-04-01T15:16:14.823Z,8.10
2023-04-01T15:19:39.925Z,8.00
2023-04-01T15:22:42.301Z,7.90
2023-04-01T15:25:59.409Z,7.90
2023-04-01T15:29:15.808Z,7.80
2023-04-01T15:32:18.060Z,7.90
2023-04-01T15:35:40.700Z,7.80
2023-04-01T15:39:00.844Z,7.90
2023-04-01T15:42:20.938Z,7.70
2023-04-01T15:44:54.199Z,7.50
2023-04-01T15:47:27.557Z,7.70
2023-04-01T15:50:51.631Z,7.80
2023-04-01T15:53:46.780Z,7.60
2023-04-01T15:56:43.246Z,7.60
2023-04-01T15:59:34.749Z,7.60
2023-04-01T16:02:38.061Z,7.60
2023-04-01T16:06:04.809Z,7.70
2023-04-01T16:09:13.997Z,7.50
2023-04-01T16:12:26.220Z,7.50
2023-04-01T16:15:35.826Z,7.60
2023-04-01T16:18:46.779Z,7.60
2023-04-01T16:21:46.144Z,7.80
2023-04-01T16:24:35.732Z,7.90
2023-04-01T16:28:13.044Z,7.80
2023-04-01T16:30:49.624Z,7.70
2023-04-01T16:33:47.057Z,7.70
2023-04-01T16:37:01.260Z,7.70
2023-04-01T16:40:20.602Z,7.30
2023-04-01T16:43:25.368Z,7.50
2023-04-01T16:46:30.867Z,7.50
2023-04-01T16:49:14.257Z,7.50
2023-04-01T16:52:10.777Z,7.30
2023-04-01T16:55:15.333Z,7.30
2023-04-01T16:57:58.009Z,7.00
2023-04-01T17:00:52.698Z,7.30
2023-04-01T17:03:40.901Z,7.40
2023-04-01T17:06:35.834Z,7.20
2023-04-01T17:09:17.999Z,7.20
2023-04-01T17:12:22.975Z,7.00
2023-04-01T17:15:28.601Z,7.10
2023-04-01T17:18:42.709Z,6.90
2023-04-01T17:22:32.373Z,6.80
2023-04-01T17:25:49.695Z,6.60
2023-04-01T17:28:42.270Z,6.70
2023-04-01T17:31:34.084Z,6.60
2023-04-01T17:34:27.204Z,6.50
2023-04-01T17:37:45.961Z,6.40
2023-04-01T17:40:44.915Z,6.50
2023-04-01T17:43:43.732Z,6.60
2023-04-01T17:47:13.781Z,6.60
2023-04-01T17:50:01.566Z,6.50
2023-04-01T17:52:57.255Z,6.30
2023-04-01T17:55:52.342Z,6.40
2023-04-01T17:58:52.843Z,6.40
2023-04-01T18:02:03.755Z,6.50
2023-04-01T18:04:52.237Z,6.40
2023-04-01T18:07:55.813Z,6.30
2023-04-01T18:11:20.584Z,6.30
2023-04-01T18:14:24.621Z,6.30
2023-04-01T18:17:27.346Z,6.10
2023-04-01T18:20:28.628Z,6.00
2023-04-01T18:23:31.386Z,6.10
2023-04-01T18:26:34.891Z,6.00
2023-04-01T18:29:45.310Z,6.00
2023-04-01T18:32:21.235Z,6.00
2023-04-01T18:35:31.140Z,6.10
2023-04-01T18:38:14.620Z,6.00
2023-04-01T18:42:02.585Z,6.10
2023-04-01T18:44:53.157Z,5.90
2023-04-01T18:47:49.026Z,5.80
2023-04-01T18:50:43.604Z,6.00
2023-04-01T18:53:48.266Z,5.90
2023-04-01T18:56:37.642Z,5.80
2023-04-01T18:59:33.757Z,5.90
2023-04-01T19:02:33.049Z,5.80
2023-04-01T19:05:24.287Z,5.80
2023-04-01T19:08:13.221Z,5.80
2023-04-01T19:11:18.394Z,5.90
2023-04-01T19:14:31.066Z,5.60
2023-04-01T19:17:48.581Z,5.50
2023-04-01T19:20:40.088Z,5.50
2023-04-01T19:24:15.011Z,5.60
2023-04-01T19:27:17.510Z,5.80
2023-04-01T19:29:57.443Z,5.70
2023-04-01T19:33:00.758Z,5.60
2023-04-01T19:35:36.166Z,5.60
2023-04-01T19:38:41.659Z,5.90
2023-04-01T19:41:37.807Z,5.70
2023-04-01T19:44:51.397Z,5.60
2023-04-01T19:48:12.561Z,5.50
2023-04-01T19:51:30.948Z,5.60
2023-04-01T19:54:55.490Z,5.50
2023-04-01T19:57:56.255Z,5.60
2023-04-01T20:01:00.026Z,5.20
2023-04-01T20:04:06.625Z,5.30
2023-04-01T20:07:10.669Z,5.20
2023-04-01T20:10:11.332Z,5.10
2023-04-01T20:13:30.521Z,5.10
2023-04-01T20:16:13.710Z,5.00
2023-04-01T20:18:59.921Z,4.90
2023-04-01T20:21:37.564Z,5.00
2023-04-01T20:24:46.690Z,5.00
2023-04-01T20:27:36.696Z,4.90
2023-04-01T20:30:40.648Z,5.00
2023-04-01T20:33:39.348Z,4.70
2023-04-01T20:37:14.377Z,4.80
2023-04-01T20:40:50.263Z,4.70
2023-04-01T20:43:54.846Z,4.70
2023-04-01T20:47:11.477Z,4.70
2023-04-01T20:50:29.183Z,4.60
2023-04-01T20:53:27.423Z,4.50
2023-04-01T20:56:25.684Z,4.40
2023-04-01T20:59:59.721Z,4.60
2023-04-01T21:03:17.400Z,4.50
2023-04-01T21:06:27.773Z,4.60
2023-04-01T21:10:06.227Z,4.50
2023-04-01T21:13:47.246Z,4.70
2023-04-01T21:16:52.643Z,4.70
2023-04-01T21:20:16.622Z,4.30
2023-04-01T21:23:09.695Z,4.30
2023-04-01T21:26:19.423Z,4.40
2023-04-01T21:29:44.740Z,4.40
2023-04-01T21:33:51.010Z,4.60
2023-04-01T21:36:43.316Z,4.70
2023-04-01T21:40:11.720Z,4.60
2023-04-01T21:43:42.476Z,4.50
2023-04-01T21:46:55.065Z,4.30
2023-04-01T21:50:20.685Z,4.30
2023-04-01T21:53:29.227Z,4.40
2023-04-01T21:56:38.477Z,4.50
2023-04-01T22:00:14.438Z,4.40
2023-04-01T22:03:52.917Z,4.30
2023-04-01T22:07:09.653Z,4.40
2023-04-01T22:10:21.976Z,4.40
2023-04-01T22:13:06.437Z,4.30
2023-04-01T22:16:26.153Z,4.40
2023-04-01T22:19:41.642Z,4.30
2023-04-01T22:22:40.418Z,4.20
2023-04-01T22:26:05.733Z,4.40
2023-04-01T22:29:27.204Z,4.50
2023-04-01T22:32:04.134Z,4.50
2023-04-01T22:35:43.853Z,4.40
2023-04-01T22:38:48.492Z,4.50
2023-04-01T22:41:59.471Z,4.40
2023-04-01T22:44:55.197Z,4.40
2023-04-01T22:48:22.139Z,4.30
2023-04-01T22:51:58.622Z,4.40
2023-04-01T22:55:01.975Z,4.40
2023-04-01T22:57:52.734Z,4.40
2023-04-01T23:00:41.740Z,4.30
2023-04-01T23:03:29.341Z,4.30
2023-04-01T23:06:05.073Z,4.10
2023-04-01T23:09:02.337Z,4.20
2023-04-01T23:12:16.999Z,4.20
2023-04-01T23:15:02.735Z,4.20
2023-04-01T23:17:53.738Z,4.20
2023-04-01T23:21:07.833Z,4.40
2023-04-01T23:23:52.161Z,4.40
2023-04-01T23:26:43.901Z,4.30
2023-04-01T23:29:19.903Z,4.20
2023-04-01T23:32:17.781Z,4.30
2023-04-01T23:35:17.922Z,4.40
2023-04-01T23:37:56.297Z,4.30
2023-04-01T23:40:27.471Z,4.20
2023-04-01T23:42:56.021Z,4.10
2023-04-01T23:45:23.971Z,4.10
2023-04-01T23:47:57.009Z,4.20
2023-04-01T23:50:32.332Z,4.10
2023-04-01T23:53:26.214Z,4.00
2023-04-01T23:56:00.040Z,4.10
2023-04-01T23:58:45.134Z,3.90
